Date,TemperatureHighF,TemperatureAvgF,TemperatureLowF,DewpointHighF,DewpointAvgF,DewpointLowF,HumidityHigh,HumidityAvg,HumidityLow,PressureMaxIn,PressureMinIn,WindSpeedMaxMPH,WindSpeedAvgMPH,GustSpeedMaxMPH,PrecipitationSumIn
2013-1-1,55.6,47.5,38.3,55.3,44.7,34.2,99,90,75,29.83,29.53,5,2,11,0.06
2013-1-2,44.1,37.0,28.8,33.7,29.6,25.4,87,75,59,29.91,29.81,4,1,9,0.00
2013-1-3,45.7,37.9,26.4,34.7,30.3,23.6,95,75,57,30.01,29.89,4,1,10,0.00
2013-1-4,42.4,39.2,34.5,40.6,37.2,31.7,99,93,66,30.08,29.95,4,0,9,0.26
2013-1-5,52.3,42.9,36.0,44.5,40.6,34.1,99,92,72,29.96,29.77,3,0,5,0.05
2013-1-6,58.8,42.0,31.8,44.2,33.8,27.6,99,77,38,29.98,29.85,5,1,11,0.00
2013-1-7,56.7,41.6,26.4,42.4,34.2,23.6,97,77,53,29.91,29.64,2,0,5,0.00
2013-1-8,51.8,49.2,45.9,51.4,47.9,42.0,99,95,76,29.64,29.46,5,1,9,0.96
2013-1-9,58.3,55.0,50.0,57.4,54.4,49.5,99,98,96,29.59,29.42,7,2,17,1.44
2013-1-10,62.1,51.4,44.8,49.2,46.1,41.7,99,84,57,29.62,29.53,4,1,13,0.00
2013-1-11,73.9,58.3,44.2,64.3,53.2,41.7,97,85,57,29.59,29.37,4,1,11,0.00
2013-1-12,73.9,64.7,44.6,68.2,59.8,33.2,97,85,58,29.49,29.23,8,1,15,0.01
2013-1-13,50.0,42.6,35.6,33.6,28.8,21.2,71,58,46,29.76,29.50,8,4,14,0.00
2013-1-14,50.9,40.0,33.1,30.4,26.0,20.8,66,58,43,29.84,29.68,5,2,11,0.00
2013-1-15,40.6,35.9,32.0,32.8,30.0,23.0,89,79,64,29.83,29.68,6,2,14,0.04
2013-1-16,52.0,37.3,27.7,26.1,20.7,14.5,72,54,24,29.92,29.74,5,1,16,0.00
2013-1-17,65.3,43.6,28.4,38.8,30.3,22.0,82,63,31,30.06,29.87,5,1,12,0.00
2013-1-18,65.5,44.6,28.4,40.9,32.5,25.0,90,66,32,30.09,29.87,2,0,6,0.00
2013-1-19,68.5,51.7,39.4,48.5,42.2,35.4,95,72,44,29.89,29.70,3,0,9,0.00
2013-1-20,73.8,52.5,36.9,50.9,42.6,33.9,94,73,37,29.83,29.63,2,0,6,0.00
2013-1-21,71.8,54.0,39.9,52.3,44.2,38.3,95,72,43,29.82,29.70,3,1,6,0.00
2013-1-22,72.5,53.5,38.3,51.7,43.9,35.3,91,72,46,29.88,29.74,3,0,8,0.00
2013-1-23,74.7,58.4,46.4,58.2,51.2,44.2,95,79,54,29.90,29.74,2,0,8,0.00
2013-1-24,80.6,64.7,53.6,62.2,56.8,50.6,96,78,51,29.95,29.77,2,1,11,0.00
2013-1-25,72.1,65.0,53.4,61.2,57.8,46.6,92,78,67,30.03,29.92,2,1,8,0.00
2013-1-26,62.8,55.2,50.0,57.2,51.4,46.9,94,87,79,30.07,29.94,2,0,5,0.01
2013-1-27,77.4,67.1,56.7,64.1,60.8,54.7,93,81,58,29.97,29.81,4,1,11,0.00
2013-1-28,76.6,71.0,68.2,66.6,64.0,62.9,85,79,64,29.93,29.76,4,1,12,0.00
2013-1-29,80.8,69.0,54.7,66.1,55.0,21.4,88,64,27,29.77,29.41,8,2,17,0.00
2013-1-30,58.5,50.1,39.2,29.5,20.7,14.5,54,33,21,30.16,29.72,10,3,17,0.00
2013-1-31,69.3,47.6,28.2,29.9,23.7,19.4,75,44,16,30.16,29.85,4,1,8,0.00
2013-2-1,71.8,53.8,37.4,44.5,35.8,28.1,80,53,26,30.06,29.84,3,1,34,0.00
2013-2-2,76.6,59.4,43.5,56.6,47.0,38.5,97,66,43,29.99,29.84,4,1,12,0.00
2013-2-3,72.7,57.9,40.3,47.5,38.4,26.7,85,52,19,30.06,29.71,3,1,6,0.00
2013-2-4,75.4,62.2,52.9,61.2,55.4,47.5,98,80,54,29.71,29.49,3,1,8,0.01
2013-2-5,77.7,60.4,46.6,53.4,48.7,41.4,99,70,28,29.70,29.56,3,0,7,0.00
2013-2-6,74.7,63.7,57.9,62.2,57.8,50.6,99,82,61,29.69,29.50,2,0,8,0.04
2013-2-7,81.5,67.1,58.8,62.7,53.7,38.3,96,67,27,29.78,29.52,5,1,10,0.00
2013-2-8,70.0,56.9,46.2,46.8,34.9,23.1,74,48,17,29.95,29.78,5,2,11,0.00
2013-2-9,68.0,58.2,52.7,66.6,54.9,36.4,99,89,53,29.80,29.47,4,1,14,0.00
2013-2-10,68.7,60.1,53.2,66.9,49.0,33.9,98,70,33,29.72,29.44,6,1,14,0.09
2013-2-11,60.6,54.0,50.5,52.3,46.3,39.3,91,76,51,29.77,29.68,4,1,10,0.11
2013-2-12,70.7,57.0,47.7,58.6,45.8,22.6,99,73,21,29.79,29.50,8,2,14,0.04
2013-2-13,62.6,48.2,36.1,40.4,35.6,31.8,90,65,34,29.88,29.72,4,2,11,0.00
2013-2-14,73.4,51.4,32.2,44.8,36.1,30.7,99,63,23,30.01,29.67,3,0,6,0.00
2013-2-15,63.3,51.7,36.0,42.2,36.9,26.6,84,58,42,30.35,30.01,6,2,12,0.00
2013-2-16,65.1,45.4,27.9,34.9,29.7,23.9,92,60,26,30.42,30.14,4,1,8,0.00
2013-2-17,71.8,54.8,36.1,51.4,37.4,28.3,80,56,25,30.16,29.91,4,1,14,0.00
2013-2-18,81.7,67.1,56.3,60.4,47.1,22.8,83,55,15,30.20,29.77,8,2,14,0.00
2013-2-19,68.9,56.4,39.6,35.5,30.8,23.6,72,40,21,30.40,30.19,4,1,11,0.00
2013-2-20,62.6,55.8,52.5,61.8,47.0,33.0,99,75,43,30.22,29.78,4,2,8,0.04
2013-2-21,75.0,64.1,46.9,66.5,43.5,20.5,99,56,14,29.98,29.70,8,2,18,0.02
2013-2-22,58.6,48.4,41.2,37.1,33.6,29.6,77,57,41,30.05,29.77,5,2,11,0.00
2013-2-23,70.0,51.0,34.3,39.0,32.9,27.7,82,53,23,29.93,29.71,4,1,10,0.00
2013-2-24,75.6,57.9,38.5,58.1,46.6,34.5,92,69,42,29.77,29.42,4,1,11,0.00
2013-2-25,64.0,55.3,45.3,59.5,36.2,22.4,96,53,21,29.71,29.39,12,5,33,0.00
2013-2-26,66.7,50.9,37.9,33.4,30.5,26.4,72,48,24,29.82,29.66,4,2,14,0.00
2013-2-27,64.4,52.1,41.4,36.5,27.8,18.1,62,41,22,30.10,29.72,8,2,14,0.00
2013-2-28,62.8,49.2,37.6,31.5,26.0,19.6,66,43,21,30.18,30.01,10,2,15,0.00
2013-3-1,69.3,49.2,28.2,33.3,25.3,19.5,83,46,16,30.15,29.95,7,2,15,0.00
2013-3-2,63.9,48.6,36.9,33.1,28.5,23.2,73,49,23,30.30,30.10,6,2,14,0.00
2013-3-3,77.4,57.5,36.1,43.4,32.0,24.4,67,42,18,30.11,29.75,6,1,12,0.00
2013-3-4,90.1,68.8,54.5,53.0,46.7,41.1,82,50,21,29.75,29.51,3,1,11,0.00
2013-3-5,67.1,56.0,38.7,54.5,27.4,12.5,74,37,17,30.23,29.59,11,4,22,0.00
2013-3-6,68.0,47.5,30.7,25.8,20.0,15.2,56,36,16,30.32,29.67,3,0,8,0.00
2013-3-7,73.9,58.3,41.4,53.8,43.2,25.8,75,59,36,29.72,29.53,2,1,9,0.00
2013-3-8,64.2,60.3,57.4,63.4,57.4,51.8,99,90,74,29.62,29.47,3,1,8,0.02
2013-3-9,73.0,66.3,61.2,67.6,63.1,59.1,97,89,77,29.47,29.08,4,2,14,0.27
2013-3-10,65.7,57.2,44.4,61.0,44.6,32.9,99,67,34,30.07,29.18,8,2,13,0.72
2013-3-11,68.2,48.9,31.6,37.4,30.7,22.1,96,58,20,30.15,29.93,4,1,11,0.00
2013-3-12,79.9,58.2,39.6,43.4,36.2,31.6,76,49,18,30.18,29.98,4,1,10,0.00
2013-3-13,76.8,60.9,46.0,42.1,38.5,34.4,66,46,26,30.39,30.19,3,1,8,0.00
2013-3-14,79.2,62.2,45.5,55.0,46.5,39.7,95,60,33,30.33,30.12,4,1,12,0.00
2013-3-15,82.4,66.4,50.9,55.9,49.2,40.6,98,60,26,30.16,29.91,5,1,14,0.00
2013-3-16,86.0,69.9,58.3,62.1,56.2,49.6,90,66,36,29.92,29.65,5,2,13,0.00
2013-3-17,83.5,72.0,65.8,62.9,60.9,58.8,84,70,47,29.74,29.57,4,1,11,0.00
2013-3-18,89.1,72.9,60.6,66.4,55.3,43.7,98,61,23,29.88,29.63,4,2,11,0.00
2013-3-19,86.2,66.2,47.3,63.6,53.0,43.2,88,64,43,29.95,29.75,5,1,11,0.00
2013-3-20,74.5,60.9,51.6,53.7,46.0,33.8,99,63,24,30.19,29.94,6,2,14,0.12
2013-3-21,76.3,64.0,53.2,60.9,53.0,42.1,85,68,56,29.95,29.53,4,1,14,0.00
2013-3-22,87.4,71.5,55.6,66.7,61.3,47.2,93,72,47,29.72,29.56,5,1,11,0.00
2013-3-23,80.4,61.1,50.7,61.2,53.0,46.7,96,76,44,29.76,29.51,4,1,7,0.00
2013-3-24,61.0,52.2,41.9,57.8,31.8,19.1,96,50,25,30.12,29.62,8,4,18,0.00
2013-3-25,61.7,48.1,34.7,24.8,21.7,17.6,55,38,20,30.34,30.12,7,2,10,0.00
2013-3-26,68.0,49.9,29.3,29.9,23.0,19.3,76,39,17,30.46,30.21,2,0,6,0.00
2013-3-27,70.9,56.8,39.7,47.9,38.7,24.6,71,52,35,30.27,30.07,4,1,11,0.00
2013-3-28,77.0,63.0,52.0,60.7,54.8,46.0,89,75,55,30.15,30.04,3,1,11,0.00
2013-3-29,79.3,68.1,57.4,61.4,57.7,55.9,98,72,47,30.11,29.97,3,1,11,0.00
2013-3-30,84.0,71.2,63.9,63.5,60.9,58.4,89,72,47,30.03,29.81,4,1,8,0.00
2013-3-31,79.5,70.6,62.6,70.6,63.2,59.6,93,78,59,29.96,29.85,3,0,12,0.05
2013-4-1,87.8,73.4,55.6,66.4,60.8,54.8,99,69,43,30.05,29.87,2,1,6,0.00
2013-4-2,83.3,72.1,52.2,68.7,62.9,51.0,99,76,47,29.97,29.77,4,1,18,0.90
2013-4-3,55.4,51.4,48.2,55.1,51.0,47.7,99,98,97,30.13,29.81,5,2,14,0.34
2013-4-4,60.8,50.9,45.0,47.9,44.3,40.2,97,79,57,30.22,30.08,6,2,14,0.00
2013-4-5,74.7,54.8,37.4,51.3,45.2,37.1,99,74,42,30.28,30.01,2,0,7,0.00
2013-4-6,82.4,65.7,50.4,60.2,54.3,47.5,96,69,44,30.03,29.79,5,1,13,0.00
2013-4-7,83.8,71.8,62.1,66.3,62.1,56.9,89,73,53,29.88,29.69,4,2,9,0.00
2013-4-8,82.0,76.6,69.3,68.1,65.4,64.3,92,70,55,29.91,29.69,2,2,8,0.00
2013-4-9,86.2,74.3,69.3,71.4,67.6,65.4,92,80,54,29.85,29.72,4,2,10,0.00
2013-4-10,73.4,55.6,44.1,69.3,51.3,41.3,99,86,67,30.14,29.77,7,3,14,0.14
2013-4-11,70.5,55.1,43.3,45.5,41.2,37.0,83,62,35,30.17,29.94,6,1,12,0.00
2013-4-12,84.0,61.4,41.5,53.4,45.9,41.3,99,64,26,30.18,29.98,3,0,6,0.00
2013-4-13,80.2,63.8,51.4,61.0,52.3,46.9,86,68,43,30.10,29.74,2,0,5,0.00
2013-4-14,91.0,72.7,56.3,67.0,61.3,53.9,95,70,42,29.77,29.54,3,1,11,0.00
2013-4-15,92.5,77.3,69.1,69.0,66.7,64.9,93,72,45,29.76,29.63,5,1,13,0.00
2013-4-16,90.1,77.2,67.1,70.1,67.0,63.1,89,72,48,30.00,29.76,3,1,8,0.00
2013-4-17,85.3,76.0,72.1,71.9,70.3,68.3,96,83,60,30.00,29.80,3,1,10,0.02
2013-4-18,73.8,61.9,50.4,72.2,53.1,37.4,99,75,48,30.25,29.77,7,3,15,0.18
2013-4-19,71.1,55.2,40.3,38.6,32.1,23.2,85,48,17,30.46,30.25,6,2,12,0.00
2013-4-20,76.8,58.7,38.5,46.8,35.3,29.4,84,47,19,30.38,30.11,3,1,9,0.00
2013-4-21,79.9,65.0,49.6,56.4,51.9,45.9,89,65,43,30.29,29.92,4,1,8,0.00
2013-4-22,87.8,70.8,53.8,61.9,58.3,53.0,98,68,42,30.01,29.77,4,1,11,0.00
2013-4-23,78.3,64.9,49.5,67.2,57.4,42.0,89,77,53,30.07,29.76,6,2,13,0.00
2013-4-24,68.0,53.8,44.4,41.9,38.0,32.7,82,57,33,30.22,30.08,8,3,16,0.00
2013-4-25,71.1,61.0,53.8,48.6,44.7,40.9,64,55,40,30.26,30.09,3,1,8,0.00
2013-4-26,77.7,67.9,59.0,72.1,63.3,45.1,99,86,52,30.09,29.92,2,0,7,0.02
2013-4-27,90.1,74.6,68.7,69.5,66.9,62.5,95,78,43,29.98,29.78,4,1,10,0.01
2013-4-28,90.0,75.2,61.3,66.7,62.4,57.5,98,68,37,29.88,29.68,2,0,8,0.00
2013-4-29,90.1,74.0,65.5,71.5,64.7,60.5,96,75,42,29.77,29.62,3,1,8,0.00
2013-4-30,88.7,73.7,62.4,67.5,64.0,60.9,98,74,45,29.69,29.56,2,0,7,0.00
2013-5-1,92.7,78.0,66.7,69.0,66.3,64.3,94,70,44,29.80,29.63,2,1,8,0.00
2013-5-2,74.8,55.1,47.7,64.7,47.9,36.6,96,77,63,30.23,29.76,9,4,19,0.01
2013-5-3,71.2,55.4,40.8,36.7,30.2,21.9,76,45,16,30.23,29.92,11,3,17,0.00
2013-5-4,86.2,63.0,37.8,40.9,35.6,27.9,85,44,14,29.94,29.72,4,1,12,0.00
2013-5-5,79.5,64.3,46.8,48.5,42.2,35.7,69,46,31,30.03,29.84,7,2,11,0.00
2013-5-6,79.3,63.6,48.2,52.9,48.1,43.9,86,60,33,30.01,29.85,2,0,6,0.00
2013-5-7,91.4,70.1,47.3,56.7,51.0,45.7,94,57,23,29.95,29.77,3,1,11,0.00
2013-5-8,87.1,74.1,62.4,65.4,61.4,54.4,91,67,46,29.86,29.72,4,1,10,0.00
2013-5-9,80.6,71.2,65.3,70.1,66.3,62.2,97,85,69,29.84,29.65,3,1,12,0.05
2013-5-10,90.3,70.3,59.7,70.1,63.0,59.0,99,81,35,29.89,29.66,8,2,18,1.07
2013-5-11,82.2,69.8,59.4,63.7,57.9,50.9,99,70,40,30.00,29.86,7,2,14,0.01
2013-5-12,84.7,67.9,53.1,59.3,52.4,44.1,97,61,29,30.12,29.96,5,1,10,0.00
2013-5-13,90.9,69.9,49.3,57.3,52.0,46.3,96,58,24,30.13,29.98,4,0,8,0.00
2013-5-14,90.1,74.8,58.8,67.8,61.4,56.0,94,66,38,30.06,29.83,4,1,11,0.00
2013-5-15,86.9,74.2,64.9,77.3,69.2,64.4,99,86,60,29.93,29.65,3,1,11,0.63
2013-5-16,92.7,77.5,69.1,73.1,70.4,67.9,99,81,49,29.72,29.55,4,1,10,0.05
2013-5-17,95.5,82.9,73.6,75.3,72.3,70.1,92,72,48,29.73,29.62,2,1,8,0.00
2013-5-18,97.5,82.2,70.2,72.4,68.7,63.0,95,67,41,29.76,29.64,6,1,11,0.00
2013-5-19,94.6,81.5,71.8,72.9,69.4,66.0,88,69,48,29.69,29.56,4,2,10,0.00
2013-5-20,96.8,82.3,72.7,72.2,70.0,66.7,90,69,44,29.68,29.52,4,1,16,0.00
2013-5-21,90.9,78.5,70.3,76.1,69.8,58.8,92,76,54,29.74,29.55,4,2,11,0.01
2013-5-22,95.2,77.9,56.7,72.4,62.2,55.5,97,63,33,29.79,29.63,3,1,7,0.00
2013-5-23,88.5,80.3,72.9,74.0,71.6,70.4,94,76,57,29.88,29.71,2,1,7,0.00
2013-5-24,82.6,72.9,66.7,74.8,70.2,66.4,99,92,72,29.97,29.85,3,0,10,1.30
2013-5-25,84.7,73.9,67.6,76.2,70.8,67.4,99,91,65,29.98,29.87,3,1,8,0.70
2013-5-26,88.3,78.0,71.2,74.9,71.6,68.1,98,82,63,29.93,29.81,3,1,10,0.00
2013-5-27,91.0,78.2,71.1,72.7,70.5,67.6,94,78,53,29.86,29.67,3,1,10,0.00
2013-5-28,92.3,80.3,72.3,73.0,70.1,68.3,89,73,48,29.75,29.61,4,2,14,0.00
2013-5-29,88.7,77.7,72.9,75.6,71.6,69.8,91,82,58,29.73,29.55,3,2,11,0.04
2013-5-30,90.1,80.5,74.3,73.9,71.9,70.7,90,76,54,29.68,29.59,3,1,11,0.00
2013-5-31,92.7,82.3,75.6,75.3,73.0,71.1,90,74,56,29.72,29.59,4,1,9,0.00
2013-6-1,97.0,84.0,75.7,75.4,72.8,71.5,89,71,46,29.75,29.63,4,1,11,0.00
2013-6-2,90.1,77.7,67.5,73.4,66.2,61.2,98,71,39,29.92,29.75,5,1,11,0.18
2013-6-3,95.9,78.2,61.9,69.7,64.2,58.5,98,66,34,29.85,29.67,2,0,6,0.00
2013-6-4,96.8,82.1,69.4,70.2,67.4,64.5,95,64,37,29.75,29.63,3,1,7,0.00
2013-6-5,97.2,82.2,70.0,71.4,68.2,65.2,93,65,39,29.75,29.59,2,1,8,0.00
2013-6-6,96.8,82.5,70.5,72.5,67.7,62.7,94,64,39,29.79,29.62,5,1,13,0.00
2013-6-7,88.3,76.7,67.6,66.7,61.2,55.1,89,62,35,29.86,29.72,3,1,8,0.00
2013-6-8,93.9,78.3,60.8,70.0,63.3,55.1,91,62,41,29.79,29.63,3,1,7,0.00
2013-6-9,91.4,79.4,67.1,74.6,71.8,65.4,99,79,55,29.83,29.69,8,1,15,0.51
2013-6-10,98.1,82.0,68.2,74.5,70.3,64.3,99,71,36,29.85,29.74,4,0,8,0.00
2013-6-11,96.6,83.0,73.2,74.8,71.4,63.7,96,71,44,29.88,29.78,5,1,10,0.00
2013-6-12,97.9,83.5,73.4,77.1,72.5,70.0,96,72,42,29.91,29.78,2,1,9,0.00
2013-6-13,97.9,82.6,73.0,76.7,71.9,65.5,97,72,43,29.92,29.78,4,1,8,0.00
2013-6-14,86.9,78.1,72.1,75.8,73.6,69.7,95,87,65,29.93,29.79,1,0,4,0.00
2013-6-15,88.0,81.3,75.7,76.6,74.1,72.4,95,80,61,29.99,29.88,2,0,6,0.00
2013-6-16,98.8,85.4,73.6,75.1,71.5,66.1,96,66,40,30.01,29.87,3,1,12,0.00
2013-6-17,100.4,85.9,76.1,74.8,71.3,65.0,88,65,36,29.99,29.82,4,1,12,0.00
2013-6-18,95.0,81.1,69.8,77.4,72.6,68.4,98,77,51,30.02,29.85,3,1,7,0.24
2013-6-19,99.5,85.2,73.0,75.7,71.6,67.8,97,67,42,29.96,29.87,3,1,10,0.00
2013-6-20,98.1,85.4,74.7,73.2,69.9,64.7,91,62,36,30.04,29.92,4,1,11,0.00
2013-6-21,99.5,85.9,74.3,74.4,69.3,61.8,93,61,33,30.07,29.94,4,1,11,0.00
2013-6-22,100.0,86.1,73.6,74.3,69.2,63.9,94,61,34,30.05,29.87,4,1,115,0.00
2013-6-23,95.5,84.8,74.8,74.0,68.5,60.7,91,61,36,29.99,29.88,3,1,10,0.00
2013-6-24,101.1,85.8,75.2,73.5,70.3,64.6,89,63,37,30.03,29.88,4,1,11,0.00
2013-6-25,102.6,87.4,76.8,73.8,69.7,63.5,88,59,33,30.00,29.84,4,2,14,0.00
2013-6-26,104.4,87.9,76.5,73.4,70.2,64.7,85,59,34,29.97,29.85,4,1,11,0.00
2013-6-27,105.6,88.4,75.6,72.7,67.8,59.0,86,55,23,30.04,29.89,3,1,8,0.00
2013-6-28,108.0,91.5,74.1,73.1,66.8,62.7,86,47,24,29.96,29.76,4,1,8,0.00
2013-6-29,109.4,91.7,73.2,72.5,64.4,51.6,78,46,15,29.85,29.69,5,1,9,0.00
2013-6-30,97.3,83.7,71.1,71.9,66.9,59.2,93,59,38,29.94,29.78,5,1,10,0.05
2013-7-1,93.6,81.3,70.5,64.0,55.9,51.9,62,43,27,29.98,29.87,6,2,14,0.00
2013-7-2,95.4,79.2,61.9,62.0,53.9,45.8,84,47,22,30.06,29.91,5,1,13,0.00
2013-7-3,99.3,82.8,63.9,60.1,50.9,41.5,70,36,14,30.01,29.85,4,1,8,0.00
2013-7-4,95.2,81.7,67.5,69.9,60.8,52.8,90,53,31,29.96,29.84,2,0,6,0.00
2013-7-5,102.6,85.9,67.6,70.8,62.9,53.8,92,51,20,29.96,29.78,3,1,8,0.00
2013-7-6,103.5,86.5,70.5,72.4,66.5,60.7,88,55,26,29.91,29.77,2,1,7,0.00
2013-7-7,104.9,86.1,73.9,76.6,71.6,66.6,91,67,33,29.95,29.81,3,1,8,0.11
2013-7-8,88.0,79.8,74.8,81.0,74.1,69.9,96,84,58,30.07,29.95,4,0,10,0.17
2013-7-9,102.6,86.7,73.6,75.5,71.7,66.4,97,66,35,30.11,29.95,3,1,9,0.00
2013-7-10,105.1,88.2,73.4,75.3,71.0,65.5,96,61,33,30.06,29.86,4,1,11,0.00
2013-7-11,104.2,88.8,75.6,75.0,69.3,62.1,88,56,30,29.98,29.81,2,1,9,0.00
2013-7-12,105.6,89.3,72.5,73.4,66.9,61.3,87,51,25,29.94,29.83,2,1,6,0.00
2013-7-13,108.7,90.6,73.6,69.8,65.4,59.7,82,48,21,29.95,29.79,2,0,7,0.00
2013-7-14,96.4,83.3,73.2,70.2,66.2,62.4,86,58,34,29.88,29.81,6,1,17,0.00
2013-7-15,74.5,71.1,68.9,74.2,70.1,67.1,99,97,87,30.00,29.87,2,1,8,1.15
2013-7-16,91.9,77.6,70.7,78.5,72.9,70.0,99,87,55,30.10,29.98,4,1,8,0.02
2013-7-17,89.8,75.5,70.3,78.4,72.3,69.8,99,91,57,30.14,30.05,4,0,12,0.94
2013-7-18,95.9,80.1,70.0,78.2,71.7,68.5,99,79,44,30.14,29.95,3,0,6,0.00
2013-7-19,97.2,81.9,69.1,75.7,70.5,67.1,99,72,40,30.05,29.87,2,0,6,0.00
2013-7-20,97.9,82.8,71.8,75.7,71.5,69.1,99,72,42,29.97,29.81,4,1,8,0.00
2013-7-21,98.4,83.6,72.7,76.2,73.6,70.9,98,74,44,29.95,29.85,3,1,8,0.00
2013-7-22,97.7,85.7,76.3,75.9,73.4,70.1,94,69,45,29.98,29.86,4,1,9,0.00
2013-7-23,99.5,86.5,77.0,74.9,71.4,64.5,88,64,36,30.00,29.84,4,1,10,0.00
2013-7-24,97.7,85.0,74.3,76.0,73.5,70.2,94,71,44,30.00,29.85,2,0,8,0.00
2013-7-25,100.8,86.1,73.6,76.1,71.4,67.1,96,65,38,30.02,29.93,3,0,6,0.00
2013-7-26,101.8,87.0,74.7,75.6,72.2,68.6,92,64,39,30.02,29.84,5,1,8,0.02
2013-7-27,89.2,78.6,71.2,76.0,73.0,68.4,99,84,55,29.99,29.88,4,1,8,0.20
2013-7-28,98.8,83.1,71.2,77.4,72.1,68.8,95,72,43,29.95,29.82,3,0,7,0.00
2013-7-29,100.6,86.5,77.0,75.0,71.0,64.7,90,64,36,30.00,29.91,3,1,10,0.00
2013-7-30,101.8,86.5,75.2,74.7,71.2,66.5,91,64,36,30.09,29.94,3,1,8,0.00
2013-7-31,103.8,86.9,74.1,73.7,69.5,64.0,94,61,31,30.08,29.91,2,0,7,0.00
2013-8-1,105.3,88.3,74.1,73.2,69.8,66.8,86,57,33,30.03,29.87,4,0,8,0.00
2013-8-2,103.6,88.5,75.2,71.3,68.0,65.1,77,53,32,29.97,29.84,4,0,7,0.00
2013-8-3,102.6,88.2,76.8,74.4,70.4,64.7,87,59,34,30.01,29.90,2,1,8,0.00
2013-8-4,102.4,87.9,74.7,76.2,72.3,68.7,94,63,37,30.07,29.90,2,1,7,0.00
2013-8-5,104.9,88.6,72.9,74.3,69.7,64.6,92,57,31,30.03,29.84,3,1,8,0.00
2013-8-6,105.6,89.0,74.1,74.9,70.7,63.7,91,59,31,29.95,29.78,3,1,10,0.00
2013-8-7,106.9,89.6,77.4,75.3,70.8,62.6,85,58,27,29.92,29.75,4,1,8,0.00
2013-8-8,106.3,89.2,75.7,73.2,69.1,59.5,87,56,23,29.90,29.75,3,1,8,0.00
2013-8-9,105.4,87.2,72.5,74.5,66.8,43.7,96,57,13,29.96,29.83,2,1,115,0.00
2013-8-10,106.7,89.9,80.6,73.1,66.7,60.5,72,48,31,29.96,29.80,4,1,11,0.00
2013-8-11,103.8,87.2,75.9,75.0,71.4,66.6,89,63,35,29.98,29.83,2,0,8,0.00
2013-8-12,96.6,83.7,73.8,73.1,70.1,65.2,92,67,37,29.99,29.91,4,1,8,0.00
2013-8-13,106.5,89.6,77.0,73.6,68.9,63.2,86,54,27,30.03,29.86,4,1,11,0.00
2013-8-14,104.4,85.3,75.9,73.4,70.3,64.3,87,63,33,30.02,29.88,4,1,14,0.01
2013-8-15,97.7,80.2,72.7,75.9,73.1,69.9,99,82,43,30.03,29.90,5,1,11,0.21
2013-8-16,94.1,79.9,70.5,77.1,69.9,63.0,99,75,40,30.06,29.91,6,1,9,0.00
2013-8-17,97.3,81.4,69.3,69.2,65.4,58.7,93,62,34,30.06,29.92,6,1,11,0.00
2013-8-18,99.7,81.9,65.5,68.3,61.2,56.9,87,54,25,30.07,29.95,3,0,8,0.00
2013-8-19,99.5,83.3,68.9,68.2,63.3,58.6,86,54,31,30.06,29.91,3,0,7,0.00
2013-8-20,102.2,83.6,68.4,69.6,65.5,60.1,91,59,26,30.03,29.92,4,1,8,0.00
2013-8-21,101.1,84.3,71.4,74.8,69.9,66.8,93,65,36,30.09,29.94,4,1,8,0.00
2013-8-22,100.4,86.5,72.9,75.1,70.4,65.8,95,62,36,30.10,29.91,2,0,6,0.00
2013-8-23,102.9,87.1,73.2,74.3,69.4,64.0,94,60,33,30.03,29.88,2,0,7,0.00
2013-8-24,105.1,88.3,76.3,72.4,69.2,64.7,83,56,33,30.05,29.91,4,1,11,0.00
2013-8-25,99.1,85.8,73.6,72.5,69.8,66.9,90,62,37,30.09,29.99,5,1,10,0.00
2013-8-26,95.9,81.8,73.4,73.1,71.0,67.6,94,72,43,30.13,30.01,4,1,10,0.00
2013-8-27,86.2,77.9,73.4,79.7,71.7,63.8,97,83,53,30.13,30.02,2,0,5,0.14
2013-8-28,100.0,82.8,70.0,76.1,70.0,66.9,99,70,35,30.12,29.98,5,0,9,0.00
2013-8-29,103.6,83.8,74.1,70.1,67.5,63.7,84,63,29,30.05,29.81,4,0,115,0.00
2013-8-30,104.9,87.9,72.9,68.8,66.0,62.8,80,51,29,29.94,29.73,4,1,8,0.00
2013-8-31,107.4,89.4,73.4,70.9,68.3,65.0,85,54,26,30.00,29.83,3,0,6,0.00
2013-9-1,104.7,88.3,73.4,73.5,68.7,64.8,86,55,33,29.96,29.83,3,0,8,0.00
2013-9-2,101.8,85.8,75.2,80.0,70.8,66.0,88,64,33,30.02,29.87,4,1,10,0.06
2013-9-3,105.4,85.6,71.1,74.5,69.6,65.4,97,64,30,30.06,29.91,4,1,10,0.00
2013-9-4,104.9,87.3,76.5,74.2,69.8,64.8,92,59,33,30.09,29.95,4,1,9,0.00
2013-9-5,102.0,85.5,72.1,72.4,68.6,64.9,88,61,33,30.15,30.02,3,1,8,0.00
2013-9-6,102.2,85.6,71.6,73.5,69.7,65.0,95,63,35,30.14,29.97,2,0,11,0.00
2013-9-7,100.0,83.2,72.1,75.9,70.6,65.5,96,70,35,30.08,29.93,4,1,10,0.00
2013-9-8,98.8,81.9,70.7,74.9,70.9,68.3,98,73,38,30.05,29.91,4,0,10,0.00
2013-9-9,98.1,80.5,74.1,74.0,70.3,67.7,92,74,39,29.99,29.85,3,1,11,0.00
2013-9-10,99.1,81.0,71.8,75.2,70.8,67.0,99,74,38,30.01,29.90,3,0,9,0.00
2013-9-11,97.7,83.6,73.4,74.8,69.6,61.7,95,67,36,30.06,29.92,3,0,8,0.00
2013-9-12,99.0,83.8,70.9,74.6,68.0,63.1,97,64,33,30.03,29.85,4,0,8,0.00
2013-9-13,102.4,84.8,69.4,71.2,65.2,60.4,91,56,28,29.93,29.76,2,0,8,0.00
2013-9-14,102.2,85.2,70.7,71.1,66.2,60.3,85,56,32,29.90,29.78,3,0,8,0.00
2013-9-15,95.5,83.4,72.7,74.7,69.9,64.4,94,66,41,29.97,29.87,2,0,7,0.00
2013-9-16,96.1,82.0,74.1,75.0,71.8,68.9,97,73,44,30.01,29.90,4,1,8,0.11
2013-9-17,94.1,81.3,71.8,79.0,72.5,68.8,99,78,47,30.02,29.87,2,0,9,0.01
2013-9-18,97.3,83.0,72.3,77.0,70.6,65.0,99,70,36,29.98,29.81,4,0,8,0.00
2013-9-19,96.6,81.1,74.5,79.4,74.1,71.0,98,81,45,29.91,29.76,2,0,8,0.13
2013-9-20,75.7,73.4,70.0,75.5,73.0,69.4,99,98,97,29.83,29.75,7,1,16,2.63
2013-9-21,85.3,72.8,62.2,69.5,61.6,49.5,99,72,33,29.89,29.78,7,2,13,0.00
2013-9-22,85.8,68.9,54.3,60.5,54.8,48.4,99,67,30,29.88,29.73,4,1,10,0.00
2013-9-23,91.0,71.1,54.5,62.6,56.6,52.5,99,66,27,29.93,29.76,2,0,8,0.01
2013-9-24,95.9,76.0,59.5,65.6,60.7,57.0,94,64,34,30.03,29.91,5,1,10,0.00
2013-9-25,98.2,78.6,62.8,68.8,63.2,60.1,95,63,33,30.00,29.85,3,0,6,0.00
2013-9-26,94.6,79.5,64.6,72.9,62.6,55.9,86,59,32,29.99,29.89,4,0,8,0.00
2013-9-27,91.6,80.1,73.4,77.3,73.9,70.8,95,82,59,30.01,29.90,2,1,6,0.00
2013-9-28,89.8,79.1,72.0,79.5,75.2,70.5,96,89,57,30.08,29.96,4,0,9,0.92
2013-9-29,77.7,68.5,64.0,70.6,65.9,63.2,99,92,67,30.16,30.02,4,1,8,0.19
2013-9-30,87.8,71.5,60.1,69.9,61.3,53.9,99,75,35,30.04,29.88,2,0,5,0.01
2013-10-1,90.3,76.2,65.7,74.7,67.9,59.1,98,78,48,30.02,29.91,2,0,6,0.00
2013-10-2,91.9,80.1,73.6,76.0,72.4,69.5,95,79,52,30.05,29.92,2,0,6,0.00
2013-10-3,93.4,81.1,72.5,75.6,71.1,67.5,97,74,47,30.02,29.91,3,1,11,0.00
2013-10-4,92.5,80.1,72.1,72.0,70.3,68.6,93,74,49,30.00,29.91,3,1,11,0.00
2013-10-5,89.4,74.0,61.9,73.3,63.0,41.4,96,70,46,30.17,29.96,7,2,12,0.00
2013-10-6,80.8,64.0,52.7,58.2,48.1,36.9,98,64,22,30.25,30.14,7,2,11,0.32
2013-10-7,84.7,63.0,46.4,54.4,49.3,44.0,98,67,26,30.29,30.11,2,0,6,0.00
2013-10-8,87.3,66.5,50.2,59.5,52.1,48.5,97,65,30,30.21,30.05,2,0,5,0.02
2013-10-9,84.7,68.7,55.9,64.0,57.5,51.3,97,70,44,30.15,30.03,2,0,8,0.00
2013-10-10,86.2,73.0,61.7,68.4,63.8,59.9,98,75,50,30.13,29.96,3,1,8,0.00
2013-10-11,88.3,77.4,70.0,75.0,70.6,66.0,91,80,58,30.04,29.91,3,1,8,0.00
2013-10-12,92.5,81.0,74.1,75.9,72.8,69.7,97,78,52,30.12,29.99,3,1,10,0.00
2013-10-13,74.8,69.9,65.8,74.6,69.1,65.6,99,97,89,30.26,30.10,4,1,9,2.41
2013-10-14,79.2,73.2,70.7,77.5,72.0,70.1,99,96,87,30.17,30.00,2,0,6,0.11
2013-10-15,82.0,72.7,57.7,73.1,68.6,55.4,97,87,70,30.12,29.96,5,1,11,0.01
2013-10-16,60.8,57.1,52.9,59.3,55.7,52.3,99,95,87,30.19,30.08,6,2,9,0.58
2013-10-17,74.3,60.7,49.6,55.2,50.9,47.1,93,73,43,30.25,30.05,4,1,11,0.00
2013-10-18,71.4,63.0,54.1,64.4,58.8,52.7,97,87,73,30.10,29.97,2,0,4,0.00
2013-10-19,67.3,56.0,46.6,63.2,45.1,39.7,91,70,38,30.32,30.09,7,2,16,0.00
2013-10-20,74.8,56.7,40.5,52.2,46.9,40.2,99,74,41,30.21,29.99,3,0,7,0.00
2013-10-21,79.9,67.7,59.4,67.8,60.8,51.1,94,79,64,30.16,29.98,5,1,11,0.01
2013-10-22,75.7,61.7,50.5,55.5,46.5,39.3,86,62,28,30.27,30.15,5,2,11,0.00
2013-10-23,84.2,60.8,45.5,53.4,47.5,41.3,99,68,25,30.30,30.15,2,0,6,0.00
2013-10-24,83.3,62.4,45.9,54.3,48.8,44.0,95,66,31,30.33,30.21,7,0,11,0.00
2013-10-25,79.9,64.6,49.5,62.6,56.4,48.6,98,77,52,30.43,30.27,3,0,8,0.00
2013-10-26,79.9,68.9,62.4,67.3,62.4,58.4,92,80,59,30.31,30.13,2,0,10,0.00
2013-10-27,73.4,66.7,62.2,66.8,63.2,61.1,99,89,70,30.21,30.09,4,0,6,0.17
2013-10-28,82.4,71.4,64.0,71.0,66.6,62.5,99,86,63,30.17,30.05,2,0,9,0.00
2013-10-29,82.6,74.7,69.6,71.9,68.8,66.3,92,82,62,30.16,30.05,4,1,9,0.00
2013-10-30,80.2,75.0,71.4,75.9,72.2,68.1,99,91,78,30.12,29.90,3,0,9,1.16
2013-10-31,80.8,68.7,52.0,71.6,56.7,37.6,99,73,24,30.00,29.84,6,1,13,0.22
2013-11-1,83.5,61.6,45.3,60.6,47.8,37.2,99,67,22,30.21,29.92,5,1,11,0.00
2013-11-2,73.4,60.2,48.0,47.7,40.3,29.9,81,52,21,30.42,30.21,6,2,14,0.00
2013-11-3,70.7,55.2,40.3,52.7,44.3,39.8,99,70,38,30.36,30.12,2,0,6,0.00
2013-11-4,64.4,61.4,58.3,63.0,59.0,53.0,98,92,78,30.18,30.08,2,0,8,0.04
2013-11-5,77.7,69.7,62.8,69.7,66.7,61.9,99,91,72,30.13,30.00,2,0,8,0.01
2013-11-6,70.0,58.4,49.1,68.5,55.1,42.7,99,89,66,30.47,30.09,5,1,15,0.83
2013-11-7,64.9,51.8,40.5,47.7,42.0,36.1,95,72,37,30.61,30.47,5,1,11,0.00
2013-11-8,66.0,55.3,48.0,47.4,44.9,40.5,89,70,42,30.52,30.28,2,0,5,0.00
2013-11-9,67.5,60.5,54.1,58.3,53.6,46.2,86,78,70,30.31,30.22,2,0,5,0.00
2013-11-10,72.5,63.5,59.2,58.6,57.2,53.7,92,80,61,30.42,30.27,2,0,5,0.00
2013-11-11,74.8,60.7,48.6,58.6,53.2,47.4,97,78,49,30.41,30.25,2,0,5,0.00
2013-11-12,57.6,51.2,40.5,55.6,43.9,25.6,99,78,52,30.76,30.35,9,2,18,0.00
2013-11-13,55.0,42.0,32.0,31.5,27.2,22.9,78,57,33,30.78,29.67,4,1,9,0.00
2013-11-14,60.6,47.1,30.4,48.5,36.8,27.2,97,70,35,29.68,29.31,4,0,8,0.00
2013-11-15,78.4,62.0,49.6,60.6,54.8,48.8,98,79,51,29.32,29.10,2,0,7,0.00
2013-11-16,79.9,71.1,61.5,69.5,65.4,58.3,93,83,63,29.16,28.99,4,1,11,0.00
2013-11-17,87.8,73.6,59.0,71.8,64.3,54.5,95,75,40,29.21,29.02,3,0,7,0.00
2013-11-18,73.6,64.6,54.9,58.4,53.3,47.8,92,68,55,29.36,29.21,4,1,8,0.00
2013-11-19,72.3,61.4,52.7,51.6,47.2,43.9,77,61,38,29.94,29.24,2,0,6,0.00
2013-11-20,71.6,63.4,57.7,64.8,56.6,47.8,97,79,65,29.94,29.81,2,0,5,0.00
2013-11-21,77.5,71.3,65.7,72.3,69.1,64.8,99,93,77,29.97,29.84,3,0,8,0.15
2013-11-22,70.0,40.6,34.5,69.1,39.9,33.7,99,97,90,30.35,29.97,9,4,16,0.40
2013-11-23,40.8,37.4,34.7,40.2,36.8,34.2,99,98,92,30.42,30.33,7,4,13,0.11
2013-11-24,41.0,37.1,33.1,38.7,33.3,30.0,95,86,75,30.44,29.88,5,2,11,0.22
2013-11-25,39.6,36.6,33.1,39.3,35.8,31.8,99,97,91,29.91,29.65,5,2,9,0.48
2013-11-26,51.1,41.8,37.2,38.0,34.2,29.7,93,76,51,29.93,29.70,6,3,13,0.00
2013-11-27,50.0,38.9,30.0,31.3,25.7,21.6,84,61,33,30.05,29.90,6,1,11,0.00
2013-11-28,55.4,39.8,29.3,38.1,31.0,26.2,98,74,41,30.00,29.88,2,0,4,0.00
2013-11-29,62.2,46.8,29.5,49.5,41.4,27.2,99,82,60,30.07,29.89,2,0,5,0.00
2013-11-30,64.6,55.6,48.9,56.6,50.4,44.9,97,83,72,29.92,29.73,2,0,4,0.00
2013-12-1,72.1,61.7,52.5,61.8,56.7,51.7,98,84,63,29.76,29.49,4,0,9,0.00
2013-12-2,79.9,58.8,50.0,59.0,50.1,45.0,98,76,32,29.49,29.20,4,0,6,0.00
2013-12-3,80.4,58.3,42.1,56.3,48.0,40.8,98,72,32,29.29,29.13,4,0,5,0.00
2013-12-4,74.7,61.2,51.3,65.9,57.3,46.8,98,87,72,29.33,29.23,2,0,9,0.00
2013-12-5,63.0,42.7,31.3,62.1,36.5,23.7,99,79,61,29.70,29.32,10,3,15,0.00
2013-12-6,33.8,31.3,26.8,31.5,27.2,18.8,96,85,72,30.01,29.66,8,3,16,0.02
2013-12-7,29.7,26.6,24.3,22.4,19.6,16.6,83,74,69,30.01,29.79,8,3,15,0.00
2013-12-8,45.5,34.2,26.4,39.0,30.2,16.9,93,85,75,30.25,29.60,4,0,6,0.00
2013-12-9,38.7,35.5,31.6,38.4,34.4,28.9,99,96,87,30.23,29.88,7,2,11,0.05
2013-12-10,45.1,34.1,26.2,28.9,24.1,19.1,89,69,41,30.35,30.17,5,2,9,0.01
2013-12-11,56.8,40.4,26.2,34.7,29.3,22.2,91,67,36,30.40,30.14,5,1,8,0.00
2013-12-12,53.4,40.4,29.7,37.8,32.2,25.9,87,73,52,30.42,30.11,4,0,7,0.00
2013-12-13,48.4,44.3,41.4,48.1,41.6,35.6,99,90,76,30.14,29.73,2,0,4,0.20
2013-12-14,49.5,43.0,34.7,48.1,39.2,29.8,99,87,66,30.19,29.71,8,1,12,0.01
2013-12-15,58.5,40.9,28.2,39.0,32.6,24.6,92,75,37,30.24,30.09,3,0,5,0.00
2013-12-16,66.7,44.6,30.0,42.6,35.0,27.4,96,73,34,30.14,30.00,3,0,7,0.00
2013-12-17,67.6,47.2,32.2,44.9,38.1,29.3,95,73,37,30.17,30.04,3,0,4,0.00
2013-12-18,70.0,50.8,34.5,55.3,44.5,33.0,99,81,55,30.12,29.89,4,0,9,0.00
2013-12-19,73.2,63.0,51.3,62.2,57.6,48.4,93,83,62,29.89,29.61,6,1,14,0.00
2013-12-20,73.4,67.4,64.2,67.4,64.1,61.9,95,89,77,29.67,29.45,4,1,8,0.00
2013-12-21,70.3,49.6,43.0,66.8,47.2,41.8,99,92,57,29.68,29.27,10,1,14,0.30
2013-12-22,52.7,43.3,36.0,44.2,36.8,27.8,99,79,53,30.21,29.68,8,2,12,0.00
2013-12-23,53.8,38.7,27.5,35.5,29.1,22.6,89,71,38,30.98,30.21,4,0,6,0.00
2013-12-24,59.4,40.4,26.6,41.7,30.4,23.0,98,71,33,30.36,30.10,4,0,8,0.00
2013-12-25,58.6,47.0,36.9,48.6,42.0,35.0,99,83,66,30.24,30.07,5,0,8,0.00
2013-12-26,52.9,43.9,34.7,42.2,37.5,30.7,92,79,62,30.28,30.14,4,0,6,0.00
2013-12-27,57.7,47.3,40.1,44.9,41.2,38.0,96,81,54,30.27,30.15,4,0,5,0.00
2013-12-28,61.9,48.0,36.5,46.2,41.3,34.1,96,79,52,30.63,29.84,4,0,7,0.00
2013-12-29,60.4,46.0,32.7,51.5,41.4,28.1,96,84,67,30.13,29.80,9,2,14,0.00
2013-12-30,43.9,36.4,32.4,31.0,26.8,22.1,83,68,52,30.23,30.08,6,1,12,0.00
2013-12-31,54.5,40.1,32.0,34.9,30.3,27.1,87,69,41,30.30,27.81,4,0,5,0.00
2014-1-1,68.9,49.1,34.3,53.3,41.2,27.5,92,75,54,30.07,29.80,6,1,11,0.00
2014-1-2,50.9,40.0,29.5,47.8,25.5,20.6,91,57,34,30.29,29.95,9,3,14,0.00